createdAt,value
2023-02-28T00:00:12.118Z,101184.26
2023-02-28T00:02:42.581Z,101174.47
2023-02-28T00:05:12.339Z,101178.19
2023-02-28T00:07:45.148Z,101184.07
2023-02-28T00:10:22.113Z,101183.92
2023-02-28T00:12:52.608Z,101185.20
2023-02-28T00:15:23.874Z,101190.78
2023-02-28T00:17:52.611Z,101190.17
2023-02-28T00:20:22.216Z,101187.89
2023-02-28T00:22:53.379Z,101186.38
2023-02-28T00:25:25.219Z,101182.53
2023-02-28T00:27:53.825Z,101176.70
2023-02-28T00:30:23.531Z,101170.97
2023-02-28T00:32:52.984Z,101173.20
2023-02-28T00:35:22.790Z,101178.25
2023-02-28T00:37:51.639Z,101180.06
2023-02-28T00:40:20.529Z,101181.02
2023-02-28T00:42:49.100Z,101182.69
2023-02-28T00:45:17.894Z,101185.22
2023-02-28T00:47:47.832Z,101184.56
2023-02-28T00:50:19.136Z,101187.23
2023-02-28T00:52:51.133Z,101180.23
2023-02-28T00:55:19.940Z,101184.40
2023-02-28T00:57:50.366Z,101183.34
2023-02-28T01:00:21.283Z,101178.52
2023-02-28T01:02:52.017Z,101182.55
2023-02-28T01:05:20.907Z,101188.29
2023-02-28T01:07:49.700Z,101200.58
2023-02-28T01:10:18.150Z,101203.52
2023-02-28T01:12:46.581Z,101210.20
2023-02-28T01:15:17.924Z,101215.23
2023-02-28T01:17:57.451Z,101217.97
2023-02-28T01:20:27.000Z,101225.31
2023-02-28T01:22:55.521Z,101220.21
2023-02-28T01:25:25.259Z,101221.02
2023-02-28T01:27:55.003Z,101217.64
2023-02-28T01:30:23.918Z,101217.20
2023-02-28T01:32:54.696Z,101215.86
2023-02-28T01:35:23.035Z,101217.52
2023-02-28T01:37:51.363Z,101211.45
2023-02-28T01:40:20.728Z,101209.56
2023-02-28T01:42:50.653Z,101203.70
2023-02-28T01:45:29.727Z,101200.75
2023-02-28T01:48:01.627Z,101185.80
2023-02-28T01:50:32.731Z,101184.25
2023-02-28T01:53:02.549Z,101183.20
2023-02-28T01:55:36.095Z,101189.59
2023-02-28T01:58:05.948Z,101197.73
2023-02-28T02:00:34.869Z,101202.44
2023-02-28T02:03:10.227Z,101211.86
2023-02-28T02:05:40.363Z,101218.48
2023-02-28T02:08:12.929Z,101230.59
2023-02-28T02:10:44.429Z,101232.02
2023-02-28T02:13:47.926Z,101237.08
2023-02-28T02:16:36.151Z,101234.77
2023-02-28T02:19:14.719Z,101245.00
2023-02-28T02:22:05.338Z,101258.40
2023-02-28T02:25:00.505Z,101260.95
2023-02-28T02:27:41.030Z,101267.70
2023-02-28T02:30:42.631Z,101275.37
2023-02-28T02:33:17.774Z,101268.70
2023-02-28T02:35:52.896Z,101276.11
2023-02-28T02:38:47.306Z,101277.94
2023-02-28T02:41:26.115Z,101269.98
2023-02-28T02:43:59.031Z,101266.70
2023-02-28T02:46:29.729Z,101265.23
2023-02-28T02:48:58.270Z,101271.98
2023-02-28T02:51:26.746Z,101272.98
2023-02-28T02:54:01.043Z,101279.85
2023-02-28T02:56:30.616Z,101290.42
2023-02-28T02:59:04.231Z,101301.58
2023-02-28T03:01:33.050Z,101305.73
2023-02-28T03:04:07.885Z,101310.60
2023-02-28T03:06:36.678Z,101319.20
2023-02-28T03:09:05.946Z,101322.46
2023-02-28T03:11:34.393Z,101332.25
2023-02-28T03:14:25.685Z,101335.23
2023-02-28T03:17:19.897Z,101332.80
2023-02-28T03:20:14.322Z,101334.42
2023-02-28T03:23:03.676Z,101338.19
2023-02-28T03:25:57.640Z,101337.91
2023-02-28T03:28:33.149Z,101337.45
2023-02-28T03:31:45.034Z,101339.80
2023-02-28T03:34:34.849Z,101343.45
2023-02-28T03:37:06.165Z,101340.07
2023-02-28T03:39:41.162Z,101342.58
2023-02-28T03:42:15.738Z,101344.96
2023-02-28T03:44:47.345Z,101348.07
2023-02-28T03:47:18.905Z,101351.33
2023-02-28T03:49:54.512Z,101351.71
2023-02-28T03:52:24.852Z,101350.64
2023-02-28T03:54:56.015Z,101350.31
2023-02-28T03:57:38.585Z,101357.25
2023-02-28T04:00:14.719Z,101356.80
2023-02-28T04:02:44.328Z,101367.45
2023-02-28T04:05:13.320Z,101369.05
2023-02-28T04:07:43.947Z,101370.90
2023-02-28T04:10:13.330Z,101372.67
2023-02-28T04:12:42.201Z,101379.25
2023-02-28T04:15:12.598Z,101382.40
2023-02-28T04:17:41.641Z,101387.67
2023-02-28T04:20:11.748Z,101393.27
2023-02-28T04:22:40.361Z,101393.13
2023-02-28T04:25:09.185Z,101397.40
2023-02-28T04:27:39.374Z,101398.81
2023-02-28T04:30:08.661Z,101404.73
2023-02-28T04:32:37.383Z,101401.73
2023-02-28T04:35:06.357Z,101404.63
2023-02-28T04:37:38.036Z,101405.33
2023-02-28T04:40:08.980Z,101405.88
2023-02-28T04:42:37.559Z,101406.75
2023-02-28T04:45:06.687Z,101411.95
2023-02-28T04:47:36.132Z,101414.82
2023-02-28T04:50:04.939Z,101412.14
2023-02-28T04:52:38.076Z,101410.04
2023-02-28T04:55:07.111Z,101411.80
2023-02-28T04:57:36.050Z,101408.48
2023-02-28T05:00:08.079Z,101416.44
2023-02-28T05:02:40.314Z,101425.50
2023-02-28T05:05:08.984Z,101422.88
2023-02-28T05:07:37.773Z,101427.00
2023-02-28T05:10:07.030Z,101433.01
2023-02-28T05:12:36.665Z,101439.33
2023-02-28T05:15:06.333Z,101440.95
2023-02-28T05:17:35.222Z,101436.79
2023-02-28T05:20:15.031Z,101439.77
2023-02-28T05:22:44.717Z,101435.34
2023-02-28T05:25:18.758Z,101433.48
2023-02-28T05:27:47.631Z,101430.02
2023-02-28T05:30:17.481Z,101430.34
2023-02-28T05:32:51.148Z,101427.60
2023-02-28T05:35:19.829Z,101424.46
2023-02-28T05:37:48.874Z,101436.38
2023-02-28T05:40:17.675Z,101443.25
2023-02-28T05:42:47.845Z,101451.85
2023-02-28T05:45:16.862Z,101454.63
2023-02-28T05:47:45.677Z,101457.59
2023-02-28T05:50:14.509Z,101455.76
2023-02-28T05:52:43.116Z,101458.38
2023-02-28T05:55:12.196Z,101463.75
2023-02-28T05:57:42.129Z,101467.59
2023-02-28T06:00:13.488Z,101461.79
2023-02-28T06:02:42.109Z,101461.67
2023-02-28T06:05:15.836Z,101466.14
2023-02-28T06:07:44.804Z,101468.60
2023-02-28T06:10:14.484Z,101487.50
2023-02-28T06:12:43.056Z,101491.73
2023-02-28T06:15:14.199Z,101488.87
2023-02-28T06:17:43.947Z,101485.73
2023-02-28T06:20:14.095Z,101485.09
2023-02-28T06:22:42.647Z,101484.54
2023-02-28T06:25:11.377Z,101484.98
2023-02-28T06:27:40.487Z,101482.83
2023-02-28T06:30:10.540Z,101484.79
2023-02-28T06:32:39.135Z,101488.63
2023-02-28T06:35:08.461Z,101490.82
2023-02-28T06:37:38.691Z,101492.20
2023-02-28T06:40:11.538Z,101490.77
2023-02-28T06:42:40.997Z,101492.29
2023-02-28T06:45:11.730Z,101489.80
2023-02-28T06:47:40.852Z,101485.42
2023-02-28T06:50:11.691Z,101489.20
2023-02-28T06:52:42.883Z,101489.91
2023-02-28T06:55:13.130Z,101487.94
2023-02-28T06:57:42.462Z,101489.86
2023-02-28T07:00:12.184Z,101495.15
2023-02-28T07:02:42.626Z,101496.51
2023-02-28T07:05:11.412Z,101510.25
2023-02-28T07:07:44.786Z,101510.90
2023-02-28T07:10:14.289Z,101507.55
2023-02-28T07:12:44.731Z,101509.22
2023-02-28T07:15:14.386Z,101513.23
2023-02-28T07:17:43.656Z,101502.56
2023-02-28T07:20:13.731Z,101499.95
2023-02-28T07:22:43.866Z,101499.96
2023-02-28T07:25:12.432Z,101502.16
2023-02-28T07:27:42.304Z,101495.79
2023-02-28T07:30:11.963Z,101498.10
2023-02-28T07:32:45.032Z,101498.85
2023-02-28T07:35:14.073Z,101497.84
2023-02-28T07:37:44.221Z,101492.61
2023-02-28T07:40:13.945Z,101486.50
2023-02-28T07:42:43.971Z,101484.88
2023-02-28T07:45:13.032Z,101491.59
2023-02-28T07:47:42.565Z,101490.66
2023-02-28T07:50:12.993Z,101491.59
2023-02-28T07:52:42.125Z,101499.74
2023-02-28T07:55:10.964Z,101500.62
2023-02-28T07:57:40.007Z,101497.86
2023-02-28T08:00:12.062Z,101498.01
2023-02-28T08:02:42.308Z,101502.92
2023-02-28T08:05:11.269Z,101507.14
2023-02-28T08:07:49.902Z,101508.86
2023-02-28T08:10:19.186Z,101520.89
2023-02-28T08:12:48.599Z,101520.55
2023-02-28T08:15:18.308Z,101523.84
2023-02-28T08:17:48.145Z,101518.33
2023-02-28T08:20:16.882Z,101523.41
2023-02-28T08:22:46.259Z,101531.35
2023-02-28T08:25:15.968Z,101530.33
2023-02-28T08:27:45.884Z,101529.55
2023-02-28T08:30:15.613Z,101533.42
2023-02-28T08:32:44.805Z,101536.43
2023-02-28T08:35:13.690Z,101537.17
2023-02-28T08:37:42.722Z,101538.10
2023-02-28T08:40:14.665Z,101545.13
2023-02-28T08:42:44.306Z,101546.90
2023-02-28T08:45:15.699Z,101551.20
2023-02-28T08:47:45.160Z,101565.10
2023-02-28T08:50:16.194Z,101566.05
2023-02-28T08:52:45.194Z,101566.86
2023-02-28T08:55:13.712Z,101567.52
2023-02-28T08:57:44.631Z,101561.11
2023-02-28T09:00:14.813Z,101563.98
2023-02-28T09:02:44.949Z,101562.89
2023-02-28T09:05:22.615Z,101567.59
2023-02-28T09:07:51.844Z,101567.50
2023-02-28T09:10:20.586Z,101575.22
2023-02-28T09:12:49.137Z,101575.79
2023-02-28T09:15:19.799Z,101580.09
2023-02-28T09:17:48.746Z,101593.21
2023-02-28T09:20:18.519Z,101596.77
2023-02-28T09:22:47.721Z,101601.26
2023-02-28T09:25:16.210Z,101604.75
2023-02-28T09:27:46.751Z,101608.04
2023-02-28T09:30:15.519Z,101612.98
2023-02-28T09:32:53.653Z,101613.59
2023-02-28T09:35:23.048Z,101615.42
2023-02-28T09:37:55.393Z,101619.63
2023-02-28T09:40:25.363Z,101631.45
2023-02-28T09:42:54.892Z,101641.27
2023-02-28T09:45:39.153Z,101644.55
2023-02-28T09:48:30.525Z,101636.11
2023-02-28T09:51:47.186Z,101638.06
2023-02-28T09:54:23.896Z,101627.64
2023-02-28T09:56:55.663Z,101650.35
2023-02-28T09:59:33.182Z,101663.65
2023-02-28T10:02:23.944Z,101661.08
2023-02-28T10:05:14.204Z,101647.72
2023-02-28T10:08:03.164Z,101664.52
2023-02-28T10:10:45.423Z,101667.39
2023-02-28T10:13:25.994Z,101672.70
2023-02-28T10:16:00.566Z,101677.40
2023-02-28T10:18:49.007Z,101687.85
2023-02-28T10:21:33.725Z,101687.13
2023-02-28T10:24:05.948Z,101696.42
2023-02-28T10:26:37.613Z,101705.20
2023-02-28T10:29:09.647Z,101710.84
2023-02-28T10:31:38.525Z,101714.98
2023-02-28T10:34:09.139Z,101712.60
2023-02-28T10:36:38.559Z,101717.73
2023-02-28T10:39:38.420Z,101721.46
2023-02-28T10:42:18.385Z,101706.95
2023-02-28T10:44:51.325Z,101720.34
2023-02-28T10:47:21.070Z,101734.95
2023-02-28T10:49:50.989Z,101736.91
2023-02-28T10:52:37.694Z,101736.58
2023-02-28T10:55:35.926Z,101735.36
2023-02-28T10:58:04.440Z,101726.05
2023-02-28T11:00:36.391Z,101734.08
2023-02-28T11:03:11.320Z,101736.86
2023-02-28T11:05:42.609Z,101733.00
2023-02-28T11:08:16.186Z,101730.13
2023-02-28T11:10:48.464Z,101729.35
2023-02-28T11:13:19.445Z,101727.27
2023-02-28T11:15:53.132Z,101726.41
2023-02-28T11:18:42.344Z,101733.19
2023-02-28T11:21:11.336Z,101737.35
2023-02-28T11:23:41.683Z,101739.02
2023-02-28T11:26:12.497Z,101743.27
2023-02-28T11:28:42.170Z,101745.00
2023-02-28T11:31:17.741Z,101753.48
2023-02-28T11:33:52.238Z,101758.44
2023-02-28T11:36:29.571Z,101761.87
2023-02-28T11:39:03.968Z,101757.02
2023-02-28T11:42:03.440Z,101768.20
2023-02-28T11:44:32.483Z,101759.27
2023-02-28T11:47:41.656Z,101767.25
2023-02-28T11:50:49.997Z,101760.97
2023-02-28T11:53:25.800Z,101763.27
2023-02-28T11:56:02.432Z,101769.52
2023-02-28T11:59:30.160Z,101768.05
2023-02-28T12:02:21.532Z,101761.37
2023-02-28T12:05:27.516Z,101767.89
2023-02-28T12:08:18.185Z,101765.20
2023-02-28T12:11:06.912Z,101766.34
2023-02-28T12:14:11.170Z,101766.45
2023-02-28T12:16:58.756Z,101758.79
2023-02-28T12:19:32.535Z,101756.49
2023-02-28T12:22:12.086Z,101759.82
2023-02-28T12:25:00.921Z,101764.42
2023-02-28T12:27:32.416Z,101762.15
2023-02-28T12:30:05.838Z,101763.27
2023-02-28T12:32:44.168Z,101760.89
2023-02-28T12:35:37.325Z,101766.58
2023-02-28T12:38:22.728Z,101772.50
2023-02-28T12:41:26.511Z,101777.27
2023-02-28T12:44:02.693Z,101778.21
2023-02-28T12:46:43.129Z,101783.33
2023-02-28T12:49:18.204Z,101781.92
2023-02-28T12:51:46.832Z,101782.92
2023-02-28T12:54:21.305Z,101782.68
2023-02-28T12:57:05.494Z,101786.88
2023-02-28T12:59:58.601Z,101784.98
2023-02-28T13:02:41.995Z,101788.12
2023-02-28T13:05:19.411Z,101788.73
2023-02-28T13:08:32.220Z,101792.04
2023-02-28T13:11:02.240Z,101794.39
2023-02-28T13:13:33.192Z,101793.70
2023-02-28T13:16:05.030Z,101788.50
2023-02-28T13:18:40.910Z,101783.30
2023-02-28T13:21:11.002Z,101785.66
2023-02-28T13:23:48.202Z,101779.40
2023-02-28T13:26:17.019Z,101774.05
2023-02-28T13:29:02.821Z,101769.19
2023-02-28T13:31:35.384Z,101768.33
2023-02-28T13:34:13.928Z,101773.35
2023-02-28T13:36:44.399Z,101769.71
2023-02-28T13:39:36.225Z,101772.63
2023-02-28T13:42:31.632Z,101774.52
2023-02-28T13:45:03.228Z,101774.30
2023-02-28T13:48:01.396Z,101771.19
2023-02-28T13:50:31.977Z,101763.77
2023-02-28T13:53:29.805Z,101752.31
2023-02-28T13:55:59.117Z,101749.85
2023-02-28T13:58:47.280Z,101749.05
2023-02-28T14:01:34.821Z,101758.61
2023-02-28T14:04:41.331Z,101755.36
2023-02-28T14:07:10.927Z,101750.21
2023-02-28T14:09:43.170Z,101746.39
2023-02-28T14:12:49.667Z,101745.31
2023-02-28T14:15:34.582Z,101759.43
2023-02-28T14:18:04.292Z,101760.48
2023-02-28T14:20:33.742Z,101754.39
2023-02-28T14:23:29.633Z,101760.02
2023-02-28T14:26:25.721Z,101769.90
2023-02-28T14:29:33.961Z,101771.04
2023-02-28T14:32:05.289Z,101775.94
2023-02-28T14:34:43.230Z,101778.09
2023-02-28T14:37:17.749Z,101782.61
2023-02-28T14:39:46.427Z,101789.04
2023-02-28T14:42:34.886Z,101783.79
2023-02-28T14:45:03.826Z,101785.66
2023-02-28T14:47:33.797Z,101781.26
2023-02-28T14:50:04.953Z,101781.05
2023-02-28T14:52:34.511Z,101776.79
2023-02-28T14:55:07.054Z,101775.43
2023-02-28T14:57:41.703Z,101780.63
2023-02-28T15:00:15.542Z,101772.61
2023-02-28T15:02:44.550Z,101774.27
2023-02-28T15:05:19.208Z,101768.92
2023-02-28T15:08:06.661Z,101773.48
2023-02-28T15:10:35.196Z,101771.20
2023-02-28T15:13:07.593Z,101767.48
2023-02-28T15:16:02.369Z,101763.68
2023-02-28T15:18:46.209Z,101765.34
2023-02-28T15:21:25.509Z,101758.52
2023-02-28T15:24:06.588Z,101758.91
2023-02-28T15:26:38.457Z,101754.94
2023-02-28T15:29:08.596Z,101748.30
2023-02-28T15:32:02.218Z,101745.75
2023-02-28T15:34:44.031Z,101745.45
2023-02-28T15:37:49.066Z,101743.24
2023-02-28T15:40:25.060Z,101747.60
2023-02-28T15:43:07.460Z,101739.55
2023-02-28T15:45:41.465Z,101740.07
2023-02-28T15:48:30.950Z,101737.96
2023-02-28T15:51:09.580Z,101739.83
2023-02-28T15:53:46.684Z,101740.04
2023-02-28T15:56:45.147Z,101742.41
2023-02-28T15:59:19.542Z,101748.89
2023-02-28T16:01:48.277Z,101738.96
2023-02-28T16:04:19.941Z,101734.59
2023-02-28T16:07:00.811Z,101737.13
2023-02-28T16:09:34.425Z,101740.11
2023-02-28T16:12:06.743Z,101735.48
2023-02-28T16:14:36.655Z,101733.32
2023-02-28T16:17:07.162Z,101735.89
2023-02-28T16:19:35.958Z,101732.33
2023-02-28T16:22:07.234Z,101733.09
2023-02-28T16:24:36.391Z,101730.90
2023-02-28T16:27:05.050Z,101725.76
2023-02-28T16:29:35.924Z,101724.44
2023-02-28T16:32:07.460Z,101719.08
2023-02-28T16:34:38.004Z,101721.46
2023-02-28T16:37:12.783Z,101714.29
2023-02-28T16:39:43.421Z,101716.10
2023-02-28T16:42:16.443Z,101708.66
2023-02-28T16:44:45.211Z,101706.38
2023-02-28T16:47:14.011Z,101700.88
2023-02-28T16:49:49.624Z,101697.26
2023-02-28T16:52:20.275Z,101695.77
2023-02-28T16:54:52.068Z,101688.13
2023-02-28T16:57:26.059Z,101687.94
2023-02-28T16:59:55.627Z,101684.61
2023-02-28T17:02:25.497Z,101683.10
2023-02-28T17:04:55.492Z,101677.95
2023-02-28T17:07:26.039Z,101673.48
2023-02-28T17:09:55.205Z,101670.09
2023-02-28T17:12:27.723Z,101670.13
2023-02-28T17:15:00.762Z,101660.14
2023-02-28T17:17:32.608Z,101663.16
2023-02-28T17:20:04.620Z,101667.28
2023-02-28T17:22:34.743Z,101665.09
2023-02-28T17:25:04.093Z,101667.98
2023-02-28T17:27:34.976Z,101667.20
2023-02-28T17:30:27.995Z,101664.60
2023-02-28T17:32:58.055Z,101666.66
2023-02-28T17:35:29.528Z,101657.77
2023-02-28T17:37:58.092Z,101657.54
2023-02-28T17:40:27.925Z,101656.23
2023-02-28T17:42:58.043Z,101664.33
2023-02-28T17:45:27.454Z,101664.11
2023-02-28T17:47:55.945Z,101664.87
2023-02-28T17:50:24.411Z,101656.73
2023-02-28T17:52:53.008Z,101655.50
2023-02-28T17:55:21.552Z,101653.42
2023-02-28T17:57:50.003Z,101653.67
2023-02-28T18:00:19.250Z,101654.75
2023-02-28T18:02:48.592Z,101653.94
2023-02-28T18:05:17.189Z,101652.29
2023-02-28T18:07:45.697Z,101651.73
2023-02-28T18:10:22.887Z,101652.17
2023-02-28T18:12:52.706Z,101652.76
2023-02-28T18:15:21.779Z,101655.67
2023-02-28T18:17:51.064Z,101656.57
2023-02-28T18:20:19.858Z,101650.56
2023-02-28T18:22:48.897Z,101654.13
2023-02-28T18:25:18.362Z,101652.56
2023-02-28T18:27:59.283Z,101654.55
2023-02-28T18:30:32.805Z,101665.33
2023-02-28T18:33:02.238Z,101666.08
2023-02-28T18:35:36.289Z,101662.62
2023-02-28T18:38:15.508Z,101658.30
2023-02-28T18:40:44.166Z,101662.02
2023-02-28T18:43:12.937Z,101662.56
2023-02-28T18:45:42.050Z,101661.24
2023-02-28T18:48:10.794Z,101654.74
2023-02-28T18:50:39.222Z,101657.06
2023-02-28T18:53:09.543Z,101656.55
2023-02-28T18:55:39.858Z,101654.63
2023-02-28T18:58:08.316Z,101649.70
2023-02-28T19:00:37.307Z,101652.90
2023-02-28T19:03:05.964Z,101649.94
2023-02-28T19:05:40.167Z,101649.66
2023-02-28T19:08:11.056Z,101647.14
2023-02-28T19:10:43.852Z,101645.87
2023-02-28T19:13:12.700Z,101650.92
2023-02-28T19:15:41.326Z,101646.09
2023-02-28T19:18:09.997Z,101648.31
2023-02-28T19:20:39.679Z,101648.92
2023-02-28T19:23:10.653Z,101647.79
2023-02-28T19:25:43.141Z,101649.12
2023-02-28T19:28:11.869Z,101648.17
2023-02-28T19:30:41.098Z,101647.75
2023-02-28T19:33:09.559Z,101644.98
2023-02-28T19:35:41.356Z,101648.95
2023-02-28T19:38:10.680Z,101647.94
2023-02-28T19:40:40.439Z,101643.77
2023-02-28T19:43:10.551Z,101634.85
2023-02-28T19:45:40.584Z,101634.58
2023-02-28T19:48:11.552Z,101631.66
2023-02-28T19:50:41.657Z,101635.42
2023-02-28T19:53:10.045Z,101637.59
2023-02-28T19:55:39.237Z,101635.67
2023-02-28T19:58:07.792Z,101634.30
2023-02-28T20:00:36.255Z,101635.92
2023-02-28T20:03:05.181Z,101631.90
2023-02-28T20:05:34.396Z,101630.73
2023-02-28T20:08:02.817Z,101634.66
2023-02-28T20:10:31.311Z,101632.95
2023-02-28T20:12:59.791Z,101629.28
2023-02-28T20:15:28.554Z,101622.79
2023-02-28T20:18:01.553Z,101623.49
2023-02-28T20:20:30.479Z,101622.77
2023-02-28T20:22:59.596Z,101621.48
2023-02-28T20:25:28.536Z,101614.26
2023-02-28T20:27:56.950Z,101612.52
2023-02-28T20:30:25.890Z,101608.66
2023-02-28T20:32:54.598Z,101612.07
2023-02-28T20:35:27.366Z,101615.83
2023-02-28T20:37:56.517Z,101611.85
2023-02-28T20:40:24.961Z,101613.33
2023-02-28T20:42:55.126Z,101612.84
2023-02-28T20:45:25.764Z,101610.90
2023-02-28T20:47:54.254Z,101606.66
2023-02-28T20:50:22.727Z,101604.65
2023-02-28T20:52:51.877Z,101600.82
2023-02-28T20:55:20.810Z,101600.33
2023-02-28T20:57:50.336Z,101602.52
2023-02-28T21:00:19.707Z,101602.44
2023-02-28T21:02:48.636Z,101601.78
2023-02-28T21:05:18.166Z,101599.92
2023-02-28T21:07:46.702Z,101597.01
2023-02-28T21:10:15.654Z,101594.14
2023-02-28T21:12:44.614Z,101591.70
2023-02-28T21:15:13.141Z,101588.08
2023-02-28T21:17:44.061Z,101587.48
2023-02-28T21:20:12.736Z,101581.76
2023-02-28T21:22:42.783Z,101579.75
2023-02-28T21:25:11.756Z,101576.13
2023-02-28T21:27:40.392Z,101572.53
2023-02-28T21:30:10.236Z,101573.66
2023-02-28T21:32:38.977Z,101574.38
2023-02-28T21:35:08.249Z,101572.84
2023-02-28T21:37:38.653Z,101568.48
2023-02-28T21:40:08.844Z,101566.08
2023-02-28T21:42:39.152Z,101559.30
2023-02-28T21:45:08.044Z,101558.67
2023-02-28T21:47:37.362Z,101554.94
2023-02-28T21:50:07.212Z,101549.39
2023-02-28T21:52:35.982Z,101545.98
2023-02-28T21:55:04.675Z,101540.48
2023-02-28T21:57:36.509Z,101539.51
2023-02-28T22:00:07.033Z,101538.17
2023-02-28T22:02:40.854Z,101533.88
2023-02-28T22:05:09.562Z,101526.36
2023-02-28T22:07:41.872Z,101520.92
2023-02-28T22:10:11.237Z,101518.02
2023-02-28T22:12:39.620Z,101515.44
2023-02-28T22:15:08.377Z,101508.95
2023-02-28T22:17:39.940Z,101504.87
2023-02-28T22:20:10.910Z,101501.02
2023-02-28T22:22:40.310Z,101497.64
2023-02-28T22:25:09.920Z,101495.75
2023-02-28T22:27:38.893Z,101494.94
2023-02-28T22:30:08.817Z,101496.73
2023-02-28T22:32:37.458Z,101499.80
2023-02-28T22:35:08.098Z,101502.83
2023-02-28T22:37:36.796Z,101501.66
2023-02-28T22:40:07.858Z,101500.98
2023-02-28T22:42:39.315Z,101501.11
2023-02-28T22:45:09.522Z,101498.77
2023-02-28T22:47:39.197Z,101499.05
2023-02-28T22:50:16.341Z,101501.63
2023-02-28T22:52:46.378Z,101497.52
2023-02-28T22:55:14.753Z,101498.56
2023-02-28T22:57:44.794Z,101496.60
2023-02-28T23:00:15.809Z,101497.30
2023-02-28T23:02:45.445Z,101493.61
2023-02-28T23:05:14.423Z,101481.96
2023-02-28T23:07:42.944Z,101482.84
2023-02-28T23:10:14.447Z,101475.98
2023-02-28T23:12:51.686Z,101471.20
2023-02-28T23:15:21.537Z,101465.02
2023-02-28T23:17:51.228Z,101467.98
2023-02-28T23:20:21.957Z,101472.91
2023-02-28T23:22:50.889Z,101472.98
2023-02-28T23:25:23.034Z,101473.38
2023-02-28T23:27:51.421Z,101466.74
2023-02-28T23:30:19.950Z,101467.81
2023-02-28T23:32:48.921Z,101468.02
2023-02-28T23:35:17.457Z,101460.81
2023-02-28T23:37:46.463Z,101455.17
2023-02-28T23:40:16.596Z,101453.65
2023-02-28T23:42:45.620Z,101450.84
2023-02-28T23:45:14.375Z,101448.20
2023-02-28T23:47:47.375Z,101448.73
2023-02-28T23:50:16.461Z,101444.88
2023-02-28T23:52:45.749Z,101440.69
2023-02-28T23:55:14.396Z,101439.45
2023-02-28T23:57:43.117Z,101432.58
